sensor_id;sensor_type;location;lat;lon;timestamp;P1;durP1;ratioP1;P2;durP2;ratioP2
45534;SDS011;35892;48.798;9.698;2022-07-30T00:01:57;6.25;;;5.70;;
45534;SDS011;35892;48.798;9.698;2022-07-30T00:04:24;5.13;;;4.68;;
45534;SDS011;35892;48.798;9.698;2022-07-30T00:06:54;6.18;;;5.53;;
45534;SDS011;35892;48.798;9.698;2022-07-30T00:09:23;5.82;;;5.32;;
45534;SDS011;35892;48.798;9.698;2022-07-30T00:11:50;7.45;;;5.80;;
45534;SDS011;35892;48.798;9.698;2022-07-30T00:14:21;7.50;;;5.70;;
45534;SDS011;35892;48.798;9.698;2022-07-30T00:19:21;7.10;;;5.68;;
45534;SDS011;35892;48.798;9.698;2022-07-30T00:21:51;6.30;;;5.70;;
45534;SDS011;35892;48.798;9.698;2022-07-30T00:24:20;6.80;;;5.90;;
45534;SDS011;35892;48.798;9.698;2022-07-30T00:26:47;6.28;;;5.40;;
45534;SDS011;35892;48.798;9.698;2022-07-30T00:29:17;6.25;;;5.75;;
45534;SDS011;35892;48.798;9.698;2022-07-30T00:31:44;6.45;;;5.25;;
45534;SDS011;35892;48.798;9.698;2022-07-30T00:34:13;5.22;;;4.72;;
45534;SDS011;35892;48.798;9.698;2022-07-30T00:36:39;8.63;;;6.25;;
45534;SDS011;35892;48.798;9.698;2022-07-30T00:39:09;6.30;;;5.80;;
45534;SDS011;35892;48.798;9.698;2022-07-30T00:41:51;5.70;;;5.07;;
45534;SDS011;35892;48.798;9.698;2022-07-30T00:44:20;4.93;;;4.53;;
45534;SDS011;35892;48.798;9.698;2022-07-30T00:46:47;10.38;;;6.40;;
45534;SDS011;35892;48.798;9.698;2022-07-30T00:49:14;7.97;;;5.85;;
45534;SDS011;35892;48.798;9.698;2022-07-30T00:51:41;7.03;;;5.72;;
45534;SDS011;35892;48.798;9.698;2022-07-30T00:54:08;5.97;;;5.35;;
45534;SDS011;35892;48.798;9.698;2022-07-30T00:56:35;5.97;;;5.32;;
45534;SDS011;35892;48.798;9.698;2022-07-30T00:59:07;5.88;;;5.32;;
45534;SDS011;35892;48.798;9.698;2022-07-30T01:01:36;6.22;;;5.68;;
45534;SDS011;35892;48.798;9.698;2022-07-30T01:04:03;6.97;;;5.40;;
45534;SDS011;35892;48.798;9.698;2022-07-30T01:06:39;5.22;;;4.50;;
45534;SDS011;35892;48.798;9.698;2022-07-30T01:09:08;5.95;;;5.45;;
45534;SDS011;35892;48.798;9.698;2022-07-30T01:11:40;5.97;;;4.90;;
45534;SDS011;35892;48.798;9.698;2022-07-30T01:14:08;5.18;;;4.68;;
45534;SDS011;35892;48.798;9.698;2022-07-30T01:16:38;4.80;;;4.40;;
45534;SDS011;35892;48.798;9.698;2022-07-30T01:19:18;5.22;;;4.53;;
45534;SDS011;35892;48.798;9.698;2022-07-30T01:27:43;5.25;;;4.30;;
45534;SDS011;35892;48.798;9.698;2022-07-30T01:30:16;5.95;;;4.93;;
45534;SDS011;35892;48.798;9.698;2022-07-30T01:32:45;4.55;;;4.15;;
45534;SDS011;35892;48.798;9.698;2022-07-30T01:35:14;4.68;;;4.03;;
45534;SDS011;35892;48.798;9.698;2022-07-30T01:37:46;5.18;;;4.68;;
45534;SDS011;35892;48.798;9.698;2022-07-30T01:40:21;5.47;;;4.40;;
45534;SDS011;35892;48.798;9.698;2022-07-30T01:42:51;4.55;;;4.15;;
45534;SDS011;35892;48.798;9.698;2022-07-30T01:47:52;7.47;;;5.13;;
45534;SDS011;35892;48.798;9.698;2022-07-30T01:50:23;5.50;;;5.00;;
45534;SDS011;35892;48.798;9.698;2022-07-30T01:52:51;7.30;;;5.57;;
45534;SDS011;35892;48.798;9.698;2022-07-30T01:55:33;5.57;;;4.90;;
45534;SDS011;35892;48.798;9.698;2022-07-30T01:58:02;5.10;;;4.60;;
45534;SDS011;35892;48.798;9.698;2022-07-30T02:00:31;4.57;;;4.20;;
45534;SDS011;35892;48.798;9.698;2022-07-30T02:03:03;5.10;;;4.60;;
45534;SDS011;35892;48.798;9.698;2022-07-30T02:05:34;4.85;;;4.35;;
45534;SDS011;35892;48.798;9.698;2022-07-30T02:10:41;9.27;;;8.50;;
45534;SDS011;35892;48.798;9.698;2022-07-30T02:13:14;10.10;;;9.23;;
45534;SDS011;35892;48.798;9.698;2022-07-30T02:16:03;14.05;;;10.90;;
45534;SDS011;35892;48.798;9.698;2022-07-30T02:18:49;12.18;;;10.88;;
45534;SDS011;35892;48.798;9.698;2022-07-30T02:21:33;11.70;;;10.60;;
45534;SDS011;35892;48.798;9.698;2022-07-30T02:26:34;7.72;;;6.07;;
45534;SDS011;35892;48.798;9.698;2022-07-30T02:29:03;6.15;;;5.55;;
45534;SDS011;35892;48.798;9.698;2022-07-30T02:31:36;6.35;;;5.50;;
45534;SDS011;35892;48.798;9.698;2022-07-30T02:34:07;6.35;;;5.40;;
45534;SDS011;35892;48.798;9.698;2022-07-30T02:36:38;6.63;;;5.10;;
45534;SDS011;35892;48.798;9.698;2022-07-30T02:39:09;6.20;;;5.43;;
45534;SDS011;35892;48.798;9.698;2022-07-30T02:41:37;6.45;;;5.40;;
45534;SDS011;35892;48.798;9.698;2022-07-30T02:44:17;6.22;;;5.57;;
45534;SDS011;35892;48.798;9.698;2022-07-30T02:49:15;5.70;;;5.20;;
45534;SDS011;35892;48.798;9.698;2022-07-30T02:51:46;5.93;;;5.07;;
45534;SDS011;35892;48.798;9.698;2022-07-30T02:54:14;7.30;;;6.18;;
45534;SDS011;35892;48.798;9.698;2022-07-30T02:56:48;6.43;;;5.65;;
45534;SDS011;35892;48.798;9.698;2022-07-30T02:59:17;7.50;;;5.88;;
45534;SDS011;35892;48.798;9.698;2022-07-30T03:01:46;5.82;;;5.22;;
45534;SDS011;35892;48.798;9.698;2022-07-30T03:04:18;5.85;;;5.10;;
45534;SDS011;35892;48.798;9.698;2022-07-30T03:06:50;7.60;;;6.80;;
45534;SDS011;35892;48.798;9.698;2022-07-30T03:09:21;9.70;;;8.90;;
45534;SDS011;35892;48.798;9.698;2022-07-30T03:11:50;7.05;;;6.45;;
45534;SDS011;35892;48.798;9.698;2022-07-30T03:14:21;7.35;;;6.65;;
45534;SDS011;35892;48.798;9.698;2022-07-30T03:16:54;4.97;;;4.57;;
45534;SDS011;35892;48.798;9.698;2022-07-30T03:19:28;8.32;;;7.53;;
45534;SDS011;35892;48.798;9.698;2022-07-30T03:21:59;9.25;;;6.95;;
45534;SDS011;35892;48.798;9.698;2022-07-30T03:24:29;9.60;;;6.80;;
45534;SDS011;35892;48.798;9.698;2022-07-30T03:27:01;8.50;;;5.90;;
45534;SDS011;35892;48.798;9.698;2022-07-30T03:29:29;6.78;;;6.25;;
45534;SDS011;35892;48.798;9.698;2022-07-30T03:32:00;7.47;;;5.65;;
45534;SDS011;35892;48.798;9.698;2022-07-30T03:34:30;7.32;;;6.63;;
45534;SDS011;35892;48.798;9.698;2022-07-30T03:37:04;6.70;;;6.10;;
45534;SDS011;35892;48.798;9.698;2022-07-30T03:39:34;6.75;;;5.90;;
45534;SDS011;35892;48.798;9.698;2022-07-30T03:42:03;5.78;;;5.25;;
45534;SDS011;35892;48.798;9.698;2022-07-30T03:44:36;6.78;;;6.10;;
45534;SDS011;35892;48.798;9.698;2022-07-30T03:47:04;5.75;;;5.15;;
45534;SDS011;35892;48.798;9.698;2022-07-30T03:49:33;6.45;;;5.85;;
45534;SDS011;35892;48.798;9.698;2022-07-30T03:52:00;6.97;;;6.30;;
45534;SDS011;35892;48.798;9.698;2022-07-30T03:54:30;7.18;;;5.70;;
45534;SDS011;35892;48.798;9.698;2022-07-30T03:57:03;6.70;;;6.07;;
45534;SDS011;35892;48.798;9.698;2022-07-30T03:59:32;5.82;;;5.25;;
45534;SDS011;35892;48.798;9.698;2022-07-30T04:02:02;6.13;;;4.78;;
45534;SDS011;35892;48.798;9.698;2022-07-30T04:04:32;4.68;;;4.28;;
45534;SDS011;35892;48.798;9.698;2022-07-30T04:07:01;6.97;;;5.95;;
45534;SDS011;35892;48.798;9.698;2022-07-30T04:09:30;7.57;;;5.35;;
45534;SDS011;35892;48.798;9.698;2022-07-30T04:11:57;7.55;;;5.60;;
45534;SDS011;35892;48.798;9.698;2022-07-30T04:14:32;6.63;;;5.35;;
45534;SDS011;35892;48.798;9.698;2022-07-30T04:17:30;6.43;;;5.82;;
45534;SDS011;35892;48.798;9.698;2022-07-30T04:25:17;6.07;;;5.28;;
45534;SDS011;35892;48.798;9.698;2022-07-30T04:27:52;9.50;;;6.55;;
45534;SDS011;35892;48.798;9.698;2022-07-30T04:30:28;6.75;;;6.13;;
45534;SDS011;35892;48.798;9.698;2022-07-30T04:32:57;6.22;;;5.60;;
45534;SDS011;35892;48.798;9.698;2022-07-30T04:35:27;8.70;;;5.65;;
45534;SDS011;35892;48.798;9.698;2022-07-30T04:38:17;6.53;;;5.63;;
45534;SDS011;35892;48.798;9.698;2022-07-30T04:40:44;6.13;;;5.50;;
45534;SDS011;35892;48.798;9.698;2022-07-30T04:43:14;6.50;;;5.90;;
45534;SDS011;35892;48.798;9.698;2022-07-30T04:45:44;7.05;;;6.35;;
45534;SDS011;35892;48.798;9.698;2022-07-30T04:48:10;7.72;;;5.82;;
45534;SDS011;35892;48.798;9.698;2022-07-30T04:50:41;5.38;;;4.97;;
45534;SDS011;35892;48.798;9.698;2022-07-30T04:53:10;5.45;;;4.82;;
45534;SDS011;35892;48.798;9.698;2022-07-30T04:55:41;5.40;;;5.00;;
45534;SDS011;35892;48.798;9.698;2022-07-30T04:58:12;6.28;;;5.60;;
45534;SDS011;35892;48.798;9.698;2022-07-30T05:00:44;5.03;;;4.55;;
45534;SDS011;35892;48.798;9.698;2022-07-30T05:03:18;6.10;;;5.18;;
45534;SDS011;35892;48.798;9.698;2022-07-30T05:05:48;6.28;;;4.90;;
45534;SDS011;35892;48.798;9.698;2022-07-30T05:08:23;5.60;;;5.10;;
45534;SDS011;35892;48.798;9.698;2022-07-30T05:10:53;6.47;;;5.53;;
45534;SDS011;35892;48.798;9.698;2022-07-30T05:13:20;7.00;;;5.72;;
45534;SDS011;35892;48.798;9.698;2022-07-30T05:16:00;12.35;;;6.95;;
45534;SDS011;35892;48.798;9.698;2022-07-30T05:18:27;6.93;;;6.32;;
45534;SDS011;35892;48.798;9.698;2022-07-30T05:20:53;5.97;;;5.43;;
45534;SDS011;35892;48.798;9.698;2022-07-30T05:23:20;6.65;;;5.18;;
45534;SDS011;35892;48.798;9.698;2022-07-30T05:25:47;7.07;;;5.18;;
45534;SDS011;35892;48.798;9.698;2022-07-30T05:28:16;5.85;;;5.22;;
45534;SDS011;35892;48.798;9.698;2022-07-30T05:30:43;6.95;;;5.90;;
45534;SDS011;35892;48.798;9.698;2022-07-30T05:33:14;5.00;;;4.50;;
45534;SDS011;35892;48.798;9.698;2022-07-30T05:35:42;5.40;;;4.90;;
45534;SDS011;35892;48.798;9.698;2022-07-30T05:38:08;5.90;;;5.30;;
45534;SDS011;35892;48.798;9.698;2022-07-30T05:40:40;5.45;;;4.95;;
45534;SDS011;35892;48.798;9.698;2022-07-30T05:43:07;7.20;;;4.80;;
45534;SDS011;35892;48.798;9.698;2022-07-30T05:45:39;6.03;;;5.20;;
45534;SDS011;35892;48.798;9.698;2022-07-30T05:48:05;6.03;;;4.78;;
45534;SDS011;35892;48.798;9.698;2022-07-30T05:50:33;5.78;;;5.18;;
45534;SDS011;35892;48.798;9.698;2022-07-30T05:53:00;4.45;;;4.05;;
45534;SDS011;35892;48.798;9.698;2022-07-30T05:55:27;5.68;;;5.18;;
45534;SDS011;35892;48.798;9.698;2022-07-30T05:57:53;5.53;;;4.88;;
45534;SDS011;35892;48.798;9.698;2022-07-30T06:00:20;5.32;;;4.93;;
45534;SDS011;35892;48.798;9.698;2022-07-30T06:02:47;5.35;;;4.85;;
45534;SDS011;35892;48.798;9.698;2022-07-30T06:05:16;3.80;;;3.50;;
45534;SDS011;35892;48.798;9.698;2022-07-30T06:07:50;6.60;;;5.43;;
45534;SDS011;35892;48.798;9.698;2022-07-30T06:10:19;6.28;;;4.97;;
45534;SDS011;35892;48.798;9.698;2022-07-30T06:12:46;6.13;;;5.53;;
45534;SDS011;35892;48.798;9.698;2022-07-30T06:15:15;5.28;;;4.88;;
45534;SDS011;35892;48.798;9.698;2022-07-30T06:17:51;6.97;;;4.90;;
45534;SDS011;35892;48.798;9.698;2022-07-30T06:20:27;6.72;;;6.00;;
45534;SDS011;35892;48.798;9.698;2022-07-30T06:22:54;6.18;;;5.32;;
45534;SDS011;35892;48.798;9.698;2022-07-30T06:25:21;7.30;;;5.40;;
45534;SDS011;35892;48.798;9.698;2022-07-30T06:27:48;4.95;;;4.50;;
45534;SDS011;35892;48.798;9.698;2022-07-30T06:30:14;5.07;;;4.57;;
45534;SDS011;35892;48.798;9.698;2022-07-30T06:32:41;5.28;;;4.78;;
45534;SDS011;35892;48.798;9.698;2022-07-30T06:35:13;6.43;;;4.80;;
45534;SDS011;35892;48.798;9.698;2022-07-30T06:37:40;6.35;;;5.05;;
45534;SDS011;35892;48.798;9.698;2022-07-30T06:40:29;5.45;;;4.50;;
45534;SDS011;35892;48.798;9.698;2022-07-30T06:42:56;6.82;;;4.88;;
45534;SDS011;35892;48.798;9.698;2022-07-30T06:45:23;6.78;;;5.05;;
45534;SDS011;35892;48.798;9.698;2022-07-30T06:47:50;5.13;;;4.18;;
45534;SDS011;35892;48.798;9.698;2022-07-30T06:50:21;7.28;;;5.00;;
45534;SDS011;35892;48.798;9.698;2022-07-30T06:52:53;4.75;;;4.25;;
45534;SDS011;35892;48.798;9.698;2022-07-30T06:55:24;6.15;;;4.43;;
45534;SDS011;35892;48.798;9.698;2022-07-30T06:57:51;5.10;;;3.80;;
45534;SDS011;35892;48.798;9.698;2022-07-30T07:00:18;7.43;;;4.60;;
45534;SDS011;35892;48.798;9.698;2022-07-30T07:02:45;6.07;;;4.55;;
45534;SDS011;35892;48.798;9.698;2022-07-30T07:05:14;7.95;;;4.28;;
45534;SDS011;35892;48.798;9.698;2022-07-30T07:07:41;6.18;;;3.85;;
45534;SDS011;35892;48.798;9.698;2022-07-30T07:10:23;7.45;;;5.05;;
45534;SDS011;35892;48.798;9.698;2022-07-30T07:12:55;7.20;;;5.45;;
45534;SDS011;35892;48.798;9.698;2022-07-30T07:15:25;6.38;;;4.55;;
45534;SDS011;35892;48.798;9.698;2022-07-30T07:18:02;8.10;;;4.32;;
45534;SDS011;35892;48.798;9.698;2022-07-30T07:20:32;7.60;;;5.25;;
45534;SDS011;35892;48.798;9.698;2022-07-30T07:23:00;7.63;;;5.22;;
45534;SDS011;35892;48.798;9.698;2022-07-30T07:25:33;9.32;;;5.20;;
45534;SDS011;35892;48.798;9.698;2022-07-30T07:28:00;7.32;;;4.85;;
45534;SDS011;35892;48.798;9.698;2022-07-30T07:30:38;6.10;;;5.28;;
45534;SDS011;35892;48.798;9.698;2022-07-30T07:33:09;5.15;;;4.65;;
45534;SDS011;35892;48.798;9.698;2022-07-30T07:35:41;12.48;;;5.88;;
45534;SDS011;35892;48.798;9.698;2022-07-30T07:38:16;7.20;;;4.88;;
45534;SDS011;35892;48.798;9.698;2022-07-30T07:40:46;6.97;;;4.55;;
45534;SDS011;35892;48.798;9.698;2022-07-30T07:43:15;6.60;;;4.68;;
45534;SDS011;35892;48.798;9.698;2022-07-30T07:45:42;7.90;;;5.18;;
45534;SDS011;35892;48.798;9.698;2022-07-30T07:48:11;5.82;;;4.60;;
45534;SDS011;35892;48.798;9.698;2022-07-30T07:50:38;6.45;;;4.53;;
45534;SDS011;35892;48.798;9.698;2022-07-30T07:53:05;6.18;;;3.83;;
45534;SDS011;35892;48.798;9.698;2022-07-30T07:55:35;7.85;;;4.15;;
45534;SDS011;35892;48.798;9.698;2022-07-30T07:58:02;5.00;;;4.10;;
45534;SDS011;35892;48.798;9.698;2022-07-30T08:00:29;8.73;;;4.75;;
45534;SDS011;35892;48.798;9.698;2022-07-30T08:02:56;6.55;;;4.40;;
45534;SDS011;35892;48.798;9.698;2022-07-30T08:05:25;10.38;;;4.47;;
45534;SDS011;35892;48.798;9.698;2022-07-30T08:08:14;7.90;;;4.65;;
45534;SDS011;35892;48.798;9.698;2022-07-30T08:10:41;6.72;;;5.30;;
45534;SDS011;35892;48.798;9.698;2022-07-30T08:13:08;5.35;;;4.03;;
45534;SDS011;35892;48.798;9.698;2022-07-30T08:15:57;6.60;;;3.85;;
45534;SDS011;35892;48.798;9.698;2022-07-30T08:18:29;6.93;;;3.78;;
45534;SDS011;35892;48.798;9.698;2022-07-30T08:20:56;6.25;;;4.03;;
45534;SDS011;35892;48.798;9.698;2022-07-30T08:23:25;7.88;;;4.28;;
45534;SDS011;35892;48.798;9.698;2022-07-30T08:25:51;5.05;;;3.88;;
45534;SDS011;35892;48.798;9.698;2022-07-30T08:28:21;8.25;;;4.20;;
45534;SDS011;35892;48.798;9.698;2022-07-30T08:31:02;5.00;;;3.53;;
45534;SDS011;35892;48.798;9.698;2022-07-30T08:33:29;5.35;;;3.65;;
45534;SDS011;35892;48.798;9.698;2022-07-30T08:35:58;4.30;;;3.40;;
45534;SDS011;35892;48.798;9.698;2022-07-30T08:38:35;6.55;;;3.33;;
45534;SDS011;35892;48.798;9.698;2022-07-30T08:41:02;5.18;;;3.33;;
45534;SDS011;35892;48.798;9.698;2022-07-30T08:43:29;7.07;;;3.30;;
45534;SDS011;35892;48.798;9.698;2022-07-30T08:45:56;4.72;;;2.80;;
45534;SDS011;35892;48.798;9.698;2022-07-30T08:48:25;3.90;;;3.00;;
45534;SDS011;35892;48.798;9.698;2022-07-30T08:50:53;5.65;;;3.38;;
45534;SDS011;35892;48.798;9.698;2022-07-30T08:53:20;3.40;;;2.80;;
45534;SDS011;35892;48.798;9.698;2022-07-30T08:55:48;5.03;;;3.03;;
45534;SDS011;35892;48.798;9.698;2022-07-30T08:58:36;5.55;;;3.05;;
45534;SDS011;35892;48.798;9.698;2022-07-30T09:01:02;7.35;;;3.33;;
45534;SDS011;35892;48.798;9.698;2022-07-30T09:03:31;6.13;;;3.17;;
45534;SDS011;35892;48.798;9.698;2022-07-30T09:06:01;3.70;;;2.85;;
45534;SDS011;35892;48.798;9.698;2022-07-30T09:08:29;4.30;;;2.78;;
45534;SDS011;35892;48.798;9.698;2022-07-30T09:10:57;5.95;;;2.72;;
45534;SDS011;35892;48.798;9.698;2022-07-30T09:13:31;3.80;;;2.42;;
45534;SDS011;35892;48.798;9.698;2022-07-30T09:16:00;3.63;;;2.40;;
45534;SDS011;35892;48.798;9.698;2022-07-30T09:18:37;3.95;;;2.22;;
45534;SDS011;35892;48.798;9.698;2022-07-30T09:21:18;5.05;;;2.50;;
45534;SDS011;35892;48.798;9.698;2022-07-30T09:24:07;4.57;;;2.50;;
45534;SDS011;35892;48.798;9.698;2022-07-30T09:29:30;5.95;;;2.47;;
45534;SDS011;35892;48.798;9.698;2022-07-30T09:32:02;5.18;;;2.75;;
45534;SDS011;35892;48.798;9.698;2022-07-30T09:34:36;4.85;;;2.35;;
45534;SDS011;35892;48.798;9.698;2022-07-30T09:39:35;3.30;;;2.40;;
45534;SDS011;35892;48.798;9.698;2022-07-30T09:42:15;4.22;;;2.88;;
45534;SDS011;35892;48.798;9.698;2022-07-30T09:44:45;4.93;;;2.90;;
45534;SDS011;35892;48.798;9.698;2022-07-30T09:50:18;4.30;;;2.28;;
45534;SDS011;35892;48.798;9.698;2022-07-30T09:53:04;3.83;;;2.08;;
45534;SDS011;35892;48.798;9.698;2022-07-30T09:55:34;5.00;;;2.30;;
45534;SDS011;35892;48.798;9.698;2022-07-30T09:58:06;3.20;;;2.25;;
45534;SDS011;35892;48.798;9.698;2022-07-30T10:00:42;4.03;;;1.88;;
45534;SDS011;35892;48.798;9.698;2022-07-30T10:03:22;3.70;;;2.15;;
45534;SDS011;35892;48.798;9.698;2022-07-30T10:06:07;4.07;;;2.00;;
45534;SDS011;35892;48.798;9.698;2022-07-30T10:08:38;3.00;;;1.92;;
45534;SDS011;35892;48.798;9.698;2022-07-30T10:11:09;4.03;;;2.10;;
45534;SDS011;35892;48.798;9.698;2022-07-30T10:13:41;4.10;;;1.85;;
45534;SDS011;35892;48.798;9.698;2022-07-30T10:16:11;4.47;;;2.30;;
45534;SDS011;35892;48.798;9.698;2022-07-30T10:18:39;3.00;;;1.90;;
45534;SDS011;35892;48.798;9.698;2022-07-30T10:21:09;3.80;;;1.67;;
45534;SDS011;35892;48.798;9.698;2022-07-30T10:23:42;4.15;;;2.28;;
45534;SDS011;35892;48.798;9.698;2022-07-30T10:26:10;2.67;;;1.75;;
45534;SDS011;35892;48.798;9.698;2022-07-30T10:28:42;3.28;;;1.63;;
45534;SDS011;35892;48.798;9.698;2022-07-30T10:31:09;5.00;;;2.20;;
45534;SDS011;35892;48.798;9.698;2022-07-30T10:33:56;3.78;;;1.80;;
45534;SDS011;35892;48.798;9.698;2022-07-30T10:36:23;2.42;;;1.80;;
45534;SDS011;35892;48.798;9.698;2022-07-30T10:38:51;2.75;;;1.90;;
45534;SDS011;35892;48.798;9.698;2022-07-30T10:47:16;2.80;;;1.83;;
45534;SDS011;35892;48.798;9.698;2022-07-30T10:50:08;2.90;;;1.67;;
45534;SDS011;35892;48.798;9.698;2022-07-30T10:55:23;4.00;;;2.13;;
45534;SDS011;35892;48.798;9.698;2022-07-30T10:58:07;3.13;;;2.00;;
45534;SDS011;35892;48.798;9.698;2022-07-30T11:03:27;1.75;;;1.55;;
45534;SDS011;35892;48.798;9.698;2022-07-30T11:08:52;3.28;;;1.52;;
45534;SDS011;35892;48.798;9.698;2022-07-30T11:14:12;4.13;;;1.55;;
45534;SDS011;35892;48.798;9.698;2022-07-30T11:19:11;2.45;;;1.65;;
45534;SDS011;35892;48.798;9.698;2022-07-30T11:24:52;4.47;;;1.48;;
45534;SDS011;35892;48.798;9.698;2022-07-30T11:35:20;4.07;;;1.85;;
45534;SDS011;35892;48.798;9.698;2022-07-30T11:38:07;2.80;;;1.25;;
45534;SDS011;35892;48.798;9.698;2022-07-30T11:46:05;2.00;;;1.27;;
45534;SDS011;35892;48.798;9.698;2022-07-30T11:48:55;1.80;;;1.70;;
45534;SDS011;35892;48.798;9.698;2022-07-30T11:51:43;3.17;;;1.50;;
45534;SDS011;35892;48.798;9.698;2022-07-30T11:54:11;2.47;;;1.30;;
45534;SDS011;35892;48.798;9.698;2022-07-30T11:56:47;2.72;;;1.35;;
45534;SDS011;35892;48.798;9.698;2022-07-30T11:59:18;3.08;;;1.25;;
45534;SDS011;35892;48.798;9.698;2022-07-30T12:01:51;1.70;;;1.10;;
45534;SDS011;35892;48.798;9.698;2022-07-30T12:04:21;1.70;;;1.05;;
45534;SDS011;35892;48.798;9.698;2022-07-30T12:06:53;1.98;;;1.33;;
45534;SDS011;35892;48.798;9.698;2022-07-30T12:09:24;4.80;;;1.60;;
45534;SDS011;35892;48.798;9.698;2022-07-30T12:11:55;2.67;;;1.50;;
45534;SDS011;35892;48.798;9.698;2022-07-30T12:14:22;4.10;;;1.15;;
45534;SDS011;35892;48.798;9.698;2022-07-30T12:16:53;3.03;;;1.40;;
45534;SDS011;35892;48.798;9.698;2022-07-30T12:19:25;4.53;;;1.70;;
45534;SDS011;35892;48.798;9.698;2022-07-30T12:21:52;2.83;;;1.52;;
45534;SDS011;35892;48.798;9.698;2022-07-30T12:24:23;3.90;;;1.40;;
45534;SDS011;35892;48.798;9.698;2022-07-30T12:26:51;2.30;;;1.33;;
45534;SDS011;35892;48.798;9.698;2022-07-30T12:29:29;2.63;;;1.30;;
45534;SDS011;35892;48.798;9.698;2022-07-30T12:31:57;2.30;;;1.10;;
45534;SDS011;35892;48.798;9.698;2022-07-30T12:34:25;3.58;;;1.50;;
45534;SDS011;35892;48.798;9.698;2022-07-30T12:36:52;2.75;;;1.17;;
45534;SDS011;35892;48.798;9.698;2022-07-30T12:39:20;1.40;;;1.00;;
45534;SDS011;35892;48.798;9.698;2022-07-30T12:41:50;2.42;;;1.20;;
45534;SDS011;35892;48.798;9.698;2022-07-30T12:47:20;1.45;;;1.08;;
45534;SDS011;35892;48.798;9.698;2022-07-30T12:49:47;3.33;;;1.13;;
45534;SDS011;35892;48.798;9.698;2022-07-30T12:52:26;2.15;;;1.20;;
45534;SDS011;35892;48.798;9.698;2022-07-30T12:57:27;2.60;;;1.08;;
45534;SDS011;35892;48.798;9.698;2022-07-30T13:00:14;4.32;;;1.20;;
45534;SDS011;35892;48.798;9.698;2022-07-30T13:02:41;2.40;;;1.30;;
45534;SDS011;35892;48.798;9.698;2022-07-30T13:05:13;3.20;;;1.20;;
45534;SDS011;35892;48.798;9.698;2022-07-30T13:07:52;1.52;;;1.00;;
45534;SDS011;35892;48.798;9.698;2022-07-30T13:10:23;2.72;;;1.00;;
45534;SDS011;35892;48.798;9.698;2022-07-30T13:12:56;1.58;;;1.20;;
45534;SDS011;35892;48.798;9.698;2022-07-30T13:15:23;1.58;;;1.10;;
45534;SDS011;35892;48.798;9.698;2022-07-30T13:17:53;2.05;;;1.10;;
45534;SDS011;35892;48.798;9.698;2022-07-30T13:20:19;2.67;;;1.10;;
45534;SDS011;35892;48.798;9.698;2022-07-30T13:22:47;3.15;;;1.30;;
45534;SDS011;35892;48.798;9.698;2022-07-30T13:25:16;2.67;;;1.10;;
45534;SDS011;35892;48.798;9.698;2022-07-30T13:27:43;1.40;;;0.88;;
45534;SDS011;35892;48.798;9.698;2022-07-30T13:30:10;2.42;;;1.10;;
45534;SDS011;35892;48.798;9.698;2022-07-30T13:32:37;1.25;;;0.90;;
45534;SDS011;35892;48.798;9.698;2022-07-30T13:35:03;1.83;;;1.10;;
45534;SDS011;35892;48.798;9.698;2022-07-30T13:37:31;3.75;;;1.02;;
45534;SDS011;35892;48.798;9.698;2022-07-30T13:40:03;5.13;;;1.30;;
45534;SDS011;35892;48.798;9.698;2022-07-30T13:42:31;1.75;;;0.90;;
45534;SDS011;35892;48.798;9.698;2022-07-30T13:44:58;1.42;;;1.00;;
45534;SDS011;35892;48.798;9.698;2022-07-30T13:47:27;1.30;;;0.98;;
45534;SDS011;35892;48.798;9.698;2022-07-30T13:49:54;2.30;;;1.27;;
45534;SDS011;35892;48.798;9.698;2022-07-30T13:52:21;4.72;;;1.30;;
45534;SDS011;35892;48.798;9.698;2022-07-30T13:54:48;2.05;;;1.10;;
45534;SDS011;35892;48.798;9.698;2022-07-30T13:57:20;2.58;;;1.15;;
45534;SDS011;35892;48.798;9.698;2022-07-30T13:59:47;4.93;;;1.20;;
45534;SDS011;35892;48.798;9.698;2022-07-30T14:02:14;1.65;;;1.10;;
45534;SDS011;35892;48.798;9.698;2022-07-30T14:04:41;2.83;;;1.40;;
45534;SDS011;35892;48.798;9.698;2022-07-30T14:07:08;2.97;;;1.30;;
45534;SDS011;35892;48.798;9.698;2022-07-30T14:09:34;1.70;;;1.20;;
45534;SDS011;35892;48.798;9.698;2022-07-30T14:12:12;3.05;;;1.30;;
45534;SDS011;35892;48.798;9.698;2022-07-30T14:14:41;5.53;;;1.35;;
45534;SDS011;35892;48.798;9.698;2022-07-30T14:17:08;2.50;;;1.30;;
45534;SDS011;35892;48.798;9.698;2022-07-30T14:19:35;1.55;;;1.10;;
45534;SDS011;35892;48.798;9.698;2022-07-30T14:22:04;2.85;;;1.30;;
45534;SDS011;35892;48.798;9.698;2022-07-30T14:24:31;2.55;;;1.20;;
45534;SDS011;35892;48.798;9.698;2022-07-30T14:26:58;1.98;;;1.20;;
45534;SDS011;35892;48.798;9.698;2022-07-30T14:29:26;1.48;;;1.00;;
45534;SDS011;35892;48.798;9.698;2022-07-30T14:31:53;2.40;;;1.00;;
45534;SDS011;35892;48.798;9.698;2022-07-30T14:34:22;1.67;;;0.90;;
45534;SDS011;35892;48.798;9.698;2022-07-30T14:36:51;1.35;;;1.08;;
45534;SDS011;35892;48.798;9.698;2022-07-30T14:39:18;1.83;;;1.30;;
45534;SDS011;35892;48.798;9.698;2022-07-30T14:41:46;2.13;;;1.00;;
45534;SDS011;35892;48.798;9.698;2022-07-30T14:44:12;3.50;;;1.52;;
45534;SDS011;35892;48.798;9.698;2022-07-30T14:46:42;2.38;;;1.00;;
45534;SDS011;35892;48.798;9.698;2022-07-30T14:49:17;2.22;;;1.30;;
45534;SDS011;35892;48.798;9.698;2022-07-30T14:51:45;1.83;;;1.15;;
45534;SDS011;35892;48.798;9.698;2022-07-30T14:54:14;2.55;;;1.10;;
45534;SDS011;35892;48.798;9.698;2022-07-30T14:56:43;2.05;;;1.30;;
45534;SDS011;35892;48.798;9.698;2022-07-30T14:59:10;1.88;;;1.60;;
45534;SDS011;35892;48.798;9.698;2022-07-30T15:01:39;2.15;;;1.20;;
45534;SDS011;35892;48.798;9.698;2022-07-30T15:04:07;2.88;;;1.20;;
45534;SDS011;35892;48.798;9.698;2022-07-30T15:06:35;2.42;;;1.38;;
45534;SDS011;35892;48.798;9.698;2022-07-30T15:09:03;2.08;;;1.20;;
45534;SDS011;35892;48.798;9.698;2022-07-30T15:11:29;2.05;;;1.00;;
45534;SDS011;35892;48.798;9.698;2022-07-30T15:14:16;2.83;;;1.20;;
45534;SDS011;35892;48.798;9.698;2022-07-30T15:16:46;2.10;;;1.23;;
45534;SDS011;35892;48.798;9.698;2022-07-30T15:19:13;2.35;;;0.80;;
45534;SDS011;35892;48.798;9.698;2022-07-30T15:21:40;3.60;;;1.30;;
45534;SDS011;35892;48.798;9.698;2022-07-30T15:24:09;3.50;;;1.00;;
45534;SDS011;35892;48.798;9.698;2022-07-30T15:26:39;3.58;;;1.00;;
45534;SDS011;35892;48.798;9.698;2022-07-30T15:29:08;3.63;;;1.25;;
45534;SDS011;35892;48.798;9.698;2022-07-30T15:31:38;3.72;;;0.95;;
45534;SDS011;35892;48.798;9.698;2022-07-30T15:34:10;5.63;;;4.45;;
45534;SDS011;35892;48.798;9.698;2022-07-30T15:36:37;5.70;;;4.90;;
45534;SDS011;35892;48.798;9.698;2022-07-30T15:39:07;3.58;;;3.28;;
45534;SDS011;35892;48.798;9.698;2022-07-30T15:41:34;3.58;;;1.73;;
45534;SDS011;35892;48.798;9.698;2022-07-30T15:44:02;5.32;;;4.82;;
45534;SDS011;35892;48.798;9.698;2022-07-30T15:46:29;2.22;;;1.20;;
45534;SDS011;35892;48.798;9.698;2022-07-30T15:48:56;4.57;;;2.67;;
45534;SDS011;35892;48.798;9.698;2022-07-30T15:51:25;4.28;;;3.53;;
45534;SDS011;35892;48.798;9.698;2022-07-30T15:53:52;4.95;;;2.70;;
45534;SDS011;35892;48.798;9.698;2022-07-30T15:56:19;2.20;;;1.80;;
45534;SDS011;35892;48.798;9.698;2022-07-30T15:58:46;1.70;;;1.30;;
45534;SDS011;35892;48.798;9.698;2022-07-30T16:01:16;2.35;;;1.40;;
45534;SDS011;35892;48.798;9.698;2022-07-30T16:03:42;3.70;;;1.60;;
45534;SDS011;35892;48.798;9.698;2022-07-30T16:06:09;2.08;;;1.63;;
45534;SDS011;35892;48.798;9.698;2022-07-30T16:08:39;8.23;;;5.07;;
45534;SDS011;35892;48.798;9.698;2022-07-30T16:11:06;4.28;;;2.22;;
45534;SDS011;35892;48.798;9.698;2022-07-30T16:13:36;4.90;;;2.17;;
45534;SDS011;35892;48.798;9.698;2022-07-30T16:16:03;6.82;;;3.20;;
45534;SDS011;35892;48.798;9.698;2022-07-30T16:18:30;14.15;;;6.90;;
45534;SDS011;35892;48.798;9.698;2022-07-30T16:20:57;2.33;;;1.15;;
45534;SDS011;35892;48.798;9.698;2022-07-30T16:23:26;1.83;;;1.10;;